createdAt,value
2022-10-25T00:01:21.985Z,15.95
2022-10-25T00:03:49.176Z,11.80
2022-10-25T00:06:16.634Z,17.95
2022-10-25T00:08:43.884Z,15.95
2022-10-25T00:11:18.854Z,14.40
2022-10-25T00:13:45.982Z,8.32
2022-10-25T00:16:18.503Z,14.57
2022-10-25T00:18:45.623Z,14.20
2022-10-25T00:21:12.749Z,11.43
2022-10-25T00:23:40.209Z,14.02
2022-10-25T00:26:09.035Z,14.85
2022-10-25T00:28:36.274Z,18.13
2022-10-25T00:31:09.155Z,13.75
2022-10-25T00:33:37.947Z,14.63
2022-10-25T00:36:07.005Z,13.70
2022-10-25T00:38:34.396Z,13.50
2022-10-25T00:41:02.308Z,12.95
2022-10-25T00:43:45.967Z,9.40
2022-10-25T00:46:23.229Z,12.13
2022-10-25T00:48:59.654Z,12.93
2022-10-25T00:51:34.399Z,12.90
2022-10-25T00:54:02.035Z,16.75
2022-10-25T00:56:33.954Z,13.35
2022-10-25T00:59:04.529Z,12.52
2022-10-25T01:01:31.980Z,16.97
2022-10-25T01:04:03.001Z,18.90
2022-10-25T01:06:39.438Z,13.77
2022-10-25T01:09:09.417Z,17.77
2022-10-25T01:11:38.141Z,14.80
2022-10-25T01:14:11.478Z,16.75
2022-10-25T01:17:12.542Z,12.65
2022-10-25T01:19:45.546Z,22.52
2022-10-25T01:22:22.600Z,13.57
2022-10-25T01:25:31.267Z,13.95
2022-10-25T01:28:15.441Z,9.00
2022-10-25T01:31:11.742Z,15.13
2022-10-25T01:34:17.797Z,11.63
2022-10-25T01:36:58.944Z,8.63
2022-10-25T01:39:32.587Z,15.13
2022-10-25T01:42:11.929Z,9.40
2022-10-25T01:44:54.421Z,8.90
2022-10-25T01:47:32.098Z,10.20
2022-10-25T01:50:13.088Z,12.43
2022-10-25T01:52:40.180Z,13.80
2022-10-25T01:55:11.261Z,13.23
2022-10-25T01:58:04.732Z,14.65
2022-10-25T02:00:59.862Z,8.52
2022-10-25T02:03:56.031Z,11.82
2022-10-25T02:06:33.810Z,12.30
2022-10-25T02:09:12.021Z,16.60
2022-10-25T02:11:39.994Z,7.70
2022-10-25T02:14:38.953Z,7.47
2022-10-25T02:17:09.646Z,5.15
2022-10-25T02:19:45.919Z,13.43
2022-10-25T02:22:15.088Z,12.13
2022-10-25T02:24:45.772Z,9.07
2022-10-25T02:27:14.675Z,8.90
2022-10-25T02:29:42.909Z,16.70
2022-10-25T02:32:10.061Z,10.00
2022-10-25T02:34:37.118Z,11.82
2022-10-25T02:37:04.192Z,9.63
2022-10-25T02:39:31.913Z,15.00
2022-10-25T02:42:02.601Z,16.83
2022-10-25T02:44:30.320Z,17.98
2022-10-25T02:46:57.773Z,16.73
2022-10-25T02:49:24.993Z,19.75
2022-10-25T02:54:19.242Z,12.13
2022-10-25T02:56:46.599Z,13.48
2022-10-25T02:59:13.677Z,11.43
2022-10-25T03:01:40.738Z,10.07
2022-10-25T03:04:07.868Z,8.82
2022-10-25T03:06:34.930Z,17.50
2022-10-25T03:09:01.950Z,18.88
2022-10-25T03:11:29.257Z,11.38
2022-10-25T03:13:56.318Z,16.58
2022-10-25T03:16:23.379Z,15.98
2022-10-25T03:18:50.715Z,17.67
2022-10-25T03:21:17.714Z,23.90
2022-10-25T03:23:44.757Z,15.38
2022-10-25T03:26:11.867Z,14.00
2022-10-25T03:28:38.921Z,18.52
2022-10-25T03:31:15.484Z,14.40
2022-10-25T03:33:42.975Z,17.67
2022-10-25T03:36:10.928Z,21.35
2022-10-25T03:38:38.079Z,24.83
2022-10-25T03:41:05.505Z,20.60
2022-10-25T03:43:32.915Z,20.17
2022-10-25T03:45:59.996Z,23.02
2022-10-25T03:48:27.310Z,17.00
2022-10-25T03:50:54.940Z,13.80
2022-10-25T03:53:22.243Z,13.63
2022-10-25T03:55:50.092Z,18.80
2022-10-25T03:58:19.860Z,14.55
2022-10-25T04:00:46.997Z,15.55
2022-10-25T04:03:14.161Z,12.07
2022-10-25T04:05:41.211Z,15.95
2022-10-25T04:08:08.911Z,18.73
2022-10-25T04:10:35.976Z,22.80
2022-10-25T04:13:03.098Z,19.42
2022-10-25T04:15:30.458Z,26.85
2022-10-25T04:17:57.564Z,21.85
2022-10-25T04:20:24.615Z,19.00
2022-10-25T04:22:58.473Z,20.25
2022-10-25T04:25:27.074Z,16.65
2022-10-25T04:27:58.087Z,24.20
2022-10-25T04:30:25.250Z,24.58
2022-10-25T04:32:52.495Z,21.52
2022-10-25T04:35:19.742Z,24.55
2022-10-25T04:37:46.776Z,14.63
2022-10-25T04:40:14.350Z,15.40
2022-10-25T04:42:41.609Z,22.27
2022-10-25T04:45:09.228Z,24.30
2022-10-25T04:47:36.353Z,24.23
2022-10-25T04:50:03.863Z,20.30
2022-10-25T04:52:31.385Z,33.33
2022-10-25T04:54:59.153Z,19.25
2022-10-25T04:57:26.807Z,17.95
2022-10-25T04:59:54.054Z,22.23
2022-10-25T05:02:21.124Z,28.63
2022-10-25T05:04:48.215Z,16.20
2022-10-25T05:07:18.591Z,25.48
2022-10-25T05:09:47.489Z,15.40
2022-10-25T05:12:15.133Z,26.55
2022-10-25T05:14:42.307Z,21.73
2022-10-25T05:17:09.422Z,24.67
2022-10-25T05:19:36.731Z,30.85
2022-10-25T05:22:04.020Z,22.58
2022-10-25T05:24:31.164Z,28.75
2022-10-25T05:26:58.212Z,21.50
2022-10-25T05:29:25.650Z,24.98
2022-10-25T05:31:52.707Z,23.40
2022-10-25T05:34:19.971Z,18.60
2022-10-25T05:36:47.366Z,25.85
2022-10-25T05:39:14.425Z,25.13
2022-10-25T05:41:41.575Z,18.38
2022-10-25T05:44:08.759Z,12.85
2022-10-25T05:46:36.241Z,17.25
2022-10-25T05:49:04.010Z,24.42
2022-10-25T05:51:35.165Z,20.90
2022-10-25T05:54:09.463Z,18.80
2022-10-25T05:56:37.411Z,20.15
2022-10-25T05:59:10.214Z,22.23
2022-10-25T06:01:43.069Z,24.55
2022-10-25T06:04:11.322Z,19.20
2022-10-25T06:06:40.296Z,16.65
2022-10-25T06:09:08.019Z,26.77
2022-10-25T06:11:35.545Z,18.90
2022-10-25T06:14:03.190Z,26.15
2022-10-25T06:16:30.605Z,22.42
2022-10-25T06:18:57.704Z,18.13
2022-10-25T06:21:27.450Z,16.65
2022-10-25T06:23:55.656Z,17.00
2022-10-25T06:26:25.863Z,18.65
2022-10-25T06:28:55.545Z,19.73
2022-10-25T06:31:23.250Z,17.00
2022-10-25T06:33:50.812Z,18.75
2022-10-25T06:36:23.482Z,22.05
2022-10-25T06:38:51.728Z,23.65
2022-10-25T06:41:22.355Z,23.40
2022-10-25T06:43:50.406Z,17.73
2022-10-25T06:46:23.351Z,27.80
2022-10-25T06:48:52.164Z,21.00
2022-10-25T06:51:20.354Z,19.25
2022-10-25T06:53:47.757Z,23.83
2022-10-25T06:56:15.341Z,20.45
2022-10-25T06:58:42.895Z,21.83
2022-10-25T07:01:18.114Z,22.05
2022-10-25T07:03:46.637Z,18.75
2022-10-25T07:06:24.673Z,23.52
2022-10-25T07:08:55.244Z,14.30
2022-10-25T07:11:22.956Z,18.93
2022-10-25T07:13:50.064Z,24.92
2022-10-25T07:16:19.271Z,19.80
2022-10-25T07:18:46.766Z,19.80
2022-10-25T07:21:16.398Z,23.42
2022-10-25T07:23:44.500Z,20.27
2022-10-25T07:26:16.600Z,27.55
2022-10-25T07:28:45.992Z,18.23
2022-10-25T07:31:18.414Z,19.23
2022-10-25T07:33:45.589Z,16.38
2022-10-25T07:36:12.694Z,19.30
2022-10-25T07:38:39.927Z,18.17
2022-10-25T07:41:07.509Z,27.33
2022-10-25T07:43:35.098Z,14.35
2022-10-25T07:46:02.531Z,19.42
2022-10-25T07:48:29.701Z,24.30
2022-10-25T07:50:56.828Z,11.88
2022-10-25T07:53:23.977Z,17.55
2022-10-25T07:55:55.384Z,17.08
2022-10-25T07:58:22.456Z,18.23
2022-10-25T08:00:49.746Z,15.90
2022-10-25T08:03:18.378Z,22.42
2022-10-25T08:05:47.235Z,23.88
2022-10-25T08:08:15.501Z,18.98
2022-10-25T08:10:43.867Z,18.58
2022-10-25T08:13:11.429Z,21.35
2022-10-25T08:15:41.065Z,22.15
2022-10-25T08:18:09.772Z,27.80
2022-10-25T08:21:00.644Z,12.93
2022-10-25T08:23:25.459Z,16.60
2022-10-25T08:25:52.774Z,18.20
2022-10-25T08:28:20.538Z,22.15
2022-10-25T08:30:47.589Z,25.88
2022-10-25T08:33:14.714Z,18.52
2022-10-25T08:35:41.879Z,11.38
2022-10-25T08:38:09.003Z,18.00
2022-10-25T08:40:59.760Z,15.40
2022-10-25T08:43:44.669Z,20.23
2022-10-25T08:46:20.505Z,26.45
2022-10-25T08:48:52.000Z,23.15
2022-10-25T08:53:50.117Z,14.70
2022-10-25T08:56:18.707Z,18.10
2022-10-25T08:58:57.391Z,25.92
2022-10-25T09:01:54.788Z,20.33
2022-10-25T09:04:22.786Z,23.40
2022-10-25T09:06:52.617Z,17.48
2022-10-25T09:09:35.083Z,23.13
2022-10-25T09:12:11.199Z,21.73
2022-10-25T09:15:05.453Z,16.35
2022-10-25T09:17:53.508Z,17.83
2022-10-25T09:20:27.045Z,18.02
2022-10-25T09:23:13.761Z,15.90
2022-10-25T09:26:04.767Z,15.95
2022-10-25T09:28:50.197Z,17.73
2022-10-25T09:31:23.415Z,19.95
2022-10-25T09:33:58.849Z,15.25
2022-10-25T09:36:31.988Z,14.18
2022-10-25T09:39:03.258Z,18.85
2022-10-25T09:41:39.957Z,17.95
2022-10-25T09:44:11.041Z,17.90
2022-10-25T09:46:49.160Z,15.77
2022-10-25T09:49:48.876Z,19.63
2022-10-25T09:52:36.724Z,15.10
2022-10-25T09:55:12.569Z,14.68
2022-10-25T09:57:39.825Z,14.35
2022-10-25T10:00:07.600Z,11.88
2022-10-25T10:02:36.106Z,16.77
2022-10-25T10:05:03.233Z,13.00
2022-10-25T10:07:34.368Z,11.68
2022-10-25T10:10:07.826Z,16.15
2022-10-25T10:12:56.616Z,9.32
2022-10-25T10:15:23.767Z,9.52
2022-10-25T10:18:29.369Z,12.80
2022-10-25T10:21:07.267Z,7.70
2022-10-25T10:23:47.506Z,6.97
2022-10-25T10:26:22.902Z,14.02
2022-10-25T10:28:53.653Z,11.52
2022-10-25T10:31:20.779Z,12.52
2022-10-25T10:33:50.428Z,7.30
2022-10-25T10:36:23.462Z,12.18
2022-10-25T10:38:50.921Z,14.93
2022-10-25T10:41:28.986Z,16.45
2022-10-25T10:44:13.876Z,10.38
2022-10-25T10:46:47.905Z,11.27
2022-10-25T10:49:16.391Z,9.43
2022-10-25T10:51:45.660Z,13.05
2022-10-25T10:54:21.700Z,22.67
2022-10-25T10:57:03.264Z,17.65
2022-10-25T11:02:13.181Z,9.07
2022-10-25T11:04:51.925Z,12.80
2022-10-25T11:07:31.530Z,15.85
2022-10-25T11:10:23.105Z,14.23
2022-10-25T11:13:21.320Z,8.25
2022-10-25T11:16:07.280Z,13.38
2022-10-25T11:19:00.856Z,8.73
2022-10-25T11:22:11.061Z,9.13
2022-10-25T11:25:00.222Z,7.97
2022-10-25T11:27:51.159Z,7.07
2022-10-25T11:30:21.207Z,8.23
2022-10-25T11:33:15.888Z,10.75
2022-10-25T11:36:02.335Z,7.70
2022-10-25T11:38:32.187Z,7.75
2022-10-25T11:41:06.784Z,12.32
2022-10-25T11:44:01.658Z,15.23
2022-10-25T11:46:37.427Z,7.22
2022-10-25T11:49:34.027Z,10.35
2022-10-25T11:52:28.746Z,7.72
2022-10-25T11:55:13.945Z,11.73
2022-10-25T11:58:39.347Z,13.57
2022-10-25T12:01:17.132Z,13.93
2022-10-25T12:03:53.252Z,8.82
2022-10-25T12:06:27.722Z,9.20
2022-10-25T12:09:07.568Z,13.43
2022-10-25T12:11:41.808Z,9.75
2022-10-25T12:14:13.899Z,11.90
2022-10-25T12:16:42.193Z,8.88
2022-10-25T12:19:24.783Z,13.00
2022-10-25T12:22:05.380Z,11.60
2022-10-25T12:24:47.043Z,18.23
2022-10-25T12:27:19.338Z,12.40
2022-10-25T12:29:54.922Z,8.32
2022-10-25T12:32:46.335Z,7.70
2022-10-25T12:37:59.189Z,12.55
2022-10-25T12:40:28.943Z,12.63
2022-10-25T12:43:00.352Z,13.02
2022-10-25T12:45:46.226Z,11.15
2022-10-25T12:48:54.729Z,5.75
2022-10-25T12:51:58.511Z,15.30
2022-10-25T12:54:34.142Z,9.63
2022-10-25T12:57:47.382Z,17.60
2022-10-25T13:03:26.722Z,9.57
2022-10-25T13:06:05.419Z,7.85
2022-10-25T13:08:33.327Z,13.10
2022-10-25T13:11:05.603Z,8.98
2022-10-25T13:13:41.545Z,11.43
2022-10-25T13:16:11.234Z,14.68
2022-10-25T13:18:45.319Z,8.40
2022-10-25T13:21:17.218Z,14.30
2022-10-25T13:23:50.343Z,12.07
2022-10-25T13:26:26.078Z,12.38
2022-10-25T13:28:58.813Z,15.77
2022-10-25T13:31:34.835Z,21.75
2022-10-25T13:34:13.785Z,14.90
2022-10-25T13:36:54.225Z,9.63
2022-10-25T13:39:45.137Z,14.13
2022-10-25T13:42:15.205Z,11.85
2022-10-25T13:45:02.383Z,13.18
2022-10-25T13:47:36.093Z,13.02
2022-10-25T13:50:21.716Z,14.18
2022-10-25T13:53:02.536Z,11.05
2022-10-25T13:55:39.589Z,10.18
2022-10-25T13:58:49.615Z,9.13
2022-10-25T14:01:16.768Z,14.32
2022-10-25T14:03:54.464Z,13.52
2022-10-25T14:06:33.112Z,7.88
2022-10-25T14:09:10.313Z,7.88
2022-10-25T14:11:51.698Z,9.25
2022-10-25T14:14:23.716Z,11.73
2022-10-25T14:16:53.703Z,8.88
2022-10-25T14:19:23.179Z,14.43
2022-10-25T14:21:52.745Z,9.18
2022-10-25T14:24:20.451Z,10.57
2022-10-25T14:26:56.386Z,13.82
2022-10-25T14:29:26.593Z,13.25
2022-10-25T14:31:54.679Z,6.80
2022-10-25T14:34:32.053Z,11.60
2022-10-25T14:36:59.469Z,11.13
2022-10-25T14:39:28.999Z,10.13
2022-10-25T14:42:01.679Z,12.52
2022-10-25T14:44:49.651Z,10.85
2022-10-25T14:47:33.863Z,18.25
2022-10-25T14:50:02.197Z,9.50
2022-10-25T14:52:31.303Z,14.60
2022-10-25T14:55:04.482Z,16.98
2022-10-25T14:57:33.709Z,12.65
2022-10-25T15:00:05.206Z,11.45
2022-10-25T15:05:02.153Z,10.00
2022-10-25T15:07:44.048Z,11.13
2022-10-25T15:10:46.475Z,13.05
2022-10-25T15:13:48.288Z,15.30
2022-10-25T15:19:23.819Z,11.88
2022-10-25T15:21:53.335Z,10.65
2022-10-25T15:24:23.948Z,8.13
2022-10-25T15:27:28.108Z,11.97
2022-10-25T15:29:55.281Z,8.70
2022-10-25T15:32:25.564Z,10.82
2022-10-25T15:34:59.096Z,14.35
2022-10-25T15:37:27.631Z,10.00
2022-10-25T15:39:56.129Z,10.32
2022-10-25T15:42:25.786Z,9.93
2022-10-25T15:44:52.905Z,14.80
2022-10-25T15:47:33.498Z,12.07
2022-10-25T15:50:03.107Z,15.20
2022-10-25T15:52:30.431Z,17.85
2022-10-25T15:54:57.496Z,11.57
2022-10-25T15:57:27.475Z,12.20
2022-10-25T15:59:54.889Z,8.15
2022-10-25T16:02:27.229Z,13.18
2022-10-25T16:04:54.779Z,17.38
2022-10-25T16:07:22.479Z,17.23
2022-10-25T16:09:49.524Z,19.30
2022-10-25T16:12:23.385Z,10.85
2022-10-25T16:14:52.106Z,19.95
2022-10-25T16:17:19.285Z,18.38
2022-10-25T16:19:46.340Z,17.23
2022-10-25T16:22:13.447Z,15.60
2022-10-25T16:24:40.610Z,13.48
2022-10-25T16:27:07.716Z,15.70
2022-10-25T16:29:34.883Z,14.23
2022-10-25T16:32:04.130Z,12.25
2022-10-25T16:34:31.809Z,9.75
2022-10-25T16:36:58.971Z,11.55
2022-10-25T16:39:26.045Z,13.20
2022-10-25T16:41:55.245Z,17.70
2022-10-25T16:44:22.328Z,16.45
2022-10-25T16:46:49.397Z,12.32
2022-10-25T16:49:16.553Z,17.35
2022-10-25T16:51:44.662Z,17.20
2022-10-25T16:54:12.096Z,18.02
2022-10-25T16:56:39.745Z,15.48
2022-10-25T16:59:07.067Z,9.85
2022-10-25T17:01:37.009Z,15.88
2022-10-25T17:04:06.629Z,15.05
2022-10-25T17:06:41.378Z,18.08
2022-10-25T17:09:09.798Z,16.15
2022-10-25T17:11:36.842Z,17.42
2022-10-25T17:14:04.341Z,19.52
2022-10-25T17:16:31.704Z,13.13
2022-10-25T17:19:01.464Z,17.08
2022-10-25T17:21:29.223Z,12.98
2022-10-25T17:23:57.000Z,16.42
2022-10-25T17:26:24.081Z,16.00
2022-10-25T17:28:51.399Z,21.02
2022-10-25T17:31:18.694Z,16.33
2022-10-25T17:33:47.327Z,18.10
2022-10-25T17:36:17.220Z,17.67
2022-10-25T17:38:45.093Z,13.95
2022-10-25T17:41:13.353Z,11.85
2022-10-25T17:43:41.964Z,14.32
2022-10-25T17:46:14.630Z,12.93
2022-10-25T17:48:41.819Z,12.45
2022-10-25T17:51:11.278Z,13.45
2022-10-25T17:53:38.974Z,7.07
2022-10-25T17:56:17.480Z,9.93
2022-10-25T17:58:46.385Z,14.45
2022-10-25T18:01:17.673Z,20.50
2022-10-25T18:03:44.856Z,14.45
2022-10-25T18:06:14.855Z,20.20
2022-10-25T18:08:42.331Z,15.13
2022-10-25T18:11:23.290Z,21.95
2022-10-25T18:13:53.019Z,19.65
2022-10-25T18:16:22.397Z,15.57
2022-10-25T18:18:49.661Z,10.55
2022-10-25T18:21:16.884Z,12.07
2022-10-25T18:23:43.979Z,16.88
2022-10-25T18:26:12.738Z,9.48
2022-10-25T18:28:40.305Z,12.23
2022-10-25T18:31:09.649Z,10.02
2022-10-25T18:33:39.463Z,11.93
2022-10-25T18:36:11.961Z,11.75
2022-10-25T18:38:39.035Z,8.15
2022-10-25T18:41:11.518Z,9.90
2022-10-25T18:43:38.667Z,14.68
2022-10-25T18:46:05.898Z,13.88
2022-10-25T18:48:33.003Z,16.20
2022-10-25T18:51:07.260Z,12.95
2022-10-25T18:53:38.702Z,7.93
2022-10-25T18:58:45.584Z,6.88
2022-10-25T19:01:16.978Z,9.35
2022-10-25T19:06:11.937Z,12.02
2022-10-25T19:08:39.610Z,8.65
2022-10-25T19:11:09.108Z,8.45
2022-10-25T19:13:36.723Z,9.18
2022-10-25T19:16:04.183Z,9.65
2022-10-25T19:18:33.346Z,9.00
2022-10-25T19:21:06.012Z,9.68
2022-10-25T19:23:33.755Z,10.25
2022-10-25T19:26:05.627Z,10.65
2022-10-25T19:28:33.390Z,13.23
2022-10-25T19:31:12.132Z,12.68
2022-10-25T19:33:39.340Z,7.57
2022-10-25T19:36:08.996Z,7.28
2022-10-25T19:38:37.154Z,10.07
2022-10-25T19:41:10.645Z,11.98
2022-10-25T19:43:37.759Z,8.10
2022-10-25T19:46:07.377Z,10.98
2022-10-25T19:48:35.408Z,11.38
2022-10-25T19:51:07.786Z,12.10
2022-10-25T19:53:35.655Z,7.25
2022-10-25T19:56:08.726Z,14.45
2022-10-25T19:58:36.445Z,12.80
2022-10-25T20:01:10.765Z,9.68
2022-10-25T20:03:38.750Z,13.52
2022-10-25T20:06:08.987Z,13.38
2022-10-25T20:08:38.120Z,7.43
2022-10-25T20:11:05.901Z,20.33
2022-10-25T20:13:33.419Z,9.13
2022-10-25T20:16:00.642Z,10.02
2022-10-25T20:18:32.199Z,7.35
2022-10-25T20:23:28.624Z,8.88
2022-10-25T20:25:55.768Z,7.47
2022-10-25T20:28:22.914Z,9.93
2022-10-25T20:30:50.261Z,12.88
2022-10-25T20:33:18.277Z,7.15
2022-10-25T20:35:46.480Z,10.73
2022-10-25T20:38:13.631Z,15.23
2022-10-25T20:40:41.293Z,15.25
2022-10-25T20:43:08.718Z,8.63
2022-10-25T20:45:35.883Z,6.75
2022-10-25T20:48:03.535Z,10.32
2022-10-25T20:50:30.647Z,8.27
2022-10-25T20:53:09.618Z,9.48
2022-10-25T20:55:37.137Z,13.35
2022-10-25T20:58:04.228Z,7.95
2022-10-25T21:00:32.681Z,19.40
2022-10-25T21:03:00.057Z,10.52
2022-10-25T21:05:27.293Z,7.35
2022-10-25T21:07:54.541Z,9.88
2022-10-25T21:10:21.592Z,11.80
2022-10-25T21:12:48.594Z,11.60
2022-10-25T21:15:15.901Z,9.55
2022-10-25T21:17:48.212Z,12.50
2022-10-25T21:20:15.476Z,16.25
2022-10-25T21:22:42.747Z,7.18
2022-10-25T21:25:09.979Z,11.35
2022-10-25T21:27:37.025Z,10.90
2022-10-25T21:30:05.018Z,8.40
2022-10-25T21:32:32.115Z,16.55
2022-10-25T21:34:59.125Z,12.90
2022-10-25T21:37:26.710Z,11.80
2022-10-25T21:39:53.759Z,6.75
2022-10-25T21:42:20.767Z,10.05
2022-10-25T21:44:47.971Z,9.15
2022-10-25T21:47:15.036Z,6.40
2022-10-25T21:49:42.064Z,13.48
2022-10-25T21:52:09.185Z,7.35
2022-10-25T21:54:36.206Z,11.52
2022-10-25T21:57:03.382Z,7.72
2022-10-25T21:59:30.476Z,8.52
2022-10-25T22:01:57.660Z,9.02
2022-10-25T22:04:25.373Z,6.38
2022-10-25T22:06:52.422Z,8.77
2022-10-25T22:09:19.666Z,7.22
2022-10-25T22:11:49.835Z,5.40
2022-10-25T22:14:16.922Z,10.13
2022-10-25T22:16:43.995Z,4.93
2022-10-25T22:19:20.002Z,11.77
2022-10-25T22:21:49.961Z,8.93
2022-10-25T22:24:17.801Z,9.23
2022-10-25T22:26:45.914Z,11.30
2022-10-25T22:29:14.168Z,6.28
2022-10-25T22:31:41.303Z,9.15
2022-10-25T22:34:09.962Z,6.22
2022-10-25T22:36:41.907Z,7.93
2022-10-25T22:39:09.402Z,9.18
2022-10-25T22:41:36.500Z,7.15
2022-10-25T22:44:03.974Z,8.63
2022-10-25T22:46:33.612Z,7.22
2022-10-25T22:49:05.852Z,7.07
2022-10-25T22:51:32.983Z,5.45
2022-10-25T22:54:00.101Z,10.75
2022-10-25T22:56:29.236Z,5.88
2022-10-25T22:59:00.059Z,9.27
2022-10-25T23:01:32.325Z,6.15
2022-10-25T23:04:00.769Z,8.65
2022-10-25T23:06:36.557Z,6.82
2022-10-25T23:09:09.524Z,4.80
2022-10-25T23:11:38.709Z,8.27
2022-10-25T23:14:10.609Z,4.63
2022-10-25T23:16:39.066Z,10.45
2022-10-25T23:19:06.147Z,12.65
2022-10-25T23:21:33.575Z,6.80
2022-10-25T23:24:00.904Z,11.10
2022-10-25T23:26:32.170Z,8.02
2022-10-25T23:29:00.210Z,7.28
2022-10-25T23:31:28.102Z,11.95
2022-10-25T23:33:57.397Z,7.80
2022-10-25T23:36:27.091Z,11.10
2022-10-25T23:38:55.811Z,10.85
2022-10-25T23:41:23.804Z,8.50
2022-10-25T23:43:51.297Z,12.50
2022-10-25T23:46:18.363Z,8.57
2022-10-25T23:48:45.508Z,8.98
2022-10-25T23:51:18.085Z,7.97
2022-10-25T23:53:45.779Z,10.70
2022-10-25T23:56:13.749Z,6.45
2022-10-25T23:58:41.528Z,7.15
